Terminal Aerodrome Forecast
Issued by NWS

Home | Current Version | Previous Version | Graphics & Text | Print | Product List | Glossary On
Versions: 1 2 3 4 5 6 7 8 9 10 11 12 13 14 15 16 17 18 19 20
000
FTUS43 KFGF 250520
TAFBJI
TAF
KBJI 250520Z 2506/2606 15011KT P6SM VCSH OVC009
     FM250700 15011KT P6SM VCSH OVC003
     FM251000 17010KT P6SM VCSH BKN010
     FM251100 18009KT P6SM BKN015
     FM251600 27014G22KT P6SM OVC015
     FM252100 27015KT P6SM VCSH OVC010
     FM260300 30013KT P6SM OVC008=

USA.gov is the U.S. government's official web portal to all federal, state and local government web resources and services.